sensor_id;sensor_type;location;lat;lon;timestamp;P1;durP1;ratioP1;P2;durP2;ratioP2
15915;SDS011;8057;47.830;-3.870;2022-11-20T00:03:50;6.10;;;1.03;;
15915;SDS011;8057;47.830;-3.870;2022-11-20T00:08:02;3.37;;;1.20;;
15915;SDS011;8057;47.830;-3.870;2022-11-20T00:12:12;5.80;;;1.40;;
15915;SDS011;8057;47.830;-3.870;2022-11-20T00:16:21;4.67;;;1.33;;
15915;SDS011;8057;47.830;-3.870;2022-11-20T00:20:31;4.70;;;1.33;;
15915;SDS011;8057;47.830;-3.870;2022-11-20T00:24:41;4.57;;;1.17;;
15915;SDS011;8057;47.830;-3.870;2022-11-20T00:28:51;6.97;;;1.33;;
15915;SDS011;8057;47.830;-3.870;2022-11-20T00:33:01;5.17;;;1.20;;
15915;SDS011;8057;47.830;-3.870;2022-11-20T00:37:10;3.93;;;1.30;;
15915;SDS011;8057;47.830;-3.870;2022-11-20T00:41:21;6.23;;;1.40;;
15915;SDS011;8057;47.830;-3.870;2022-11-20T00:45:31;6.10;;;1.87;;
15915;SDS011;8057;47.830;-3.870;2022-11-20T00:49:40;4.20;;;1.53;;
15915;SDS011;8057;47.830;-3.870;2022-11-20T00:53:49;4.53;;;1.40;;
15915;SDS011;8057;47.830;-3.870;2022-11-20T00:57:59;4.70;;;1.47;;
15915;SDS011;8057;47.830;-3.870;2022-11-20T01:02:10;4.80;;;1.70;;
15915;SDS011;8057;47.830;-3.870;2022-11-20T01:06:19;6.33;;;1.37;;
15915;SDS011;8057;47.830;-3.870;2022-11-20T01:10:29;7.20;;;1.40;;
15915;SDS011;8057;47.830;-3.870;2022-11-20T01:14:40;3.50;;;1.17;;
15915;SDS011;8057;47.830;-3.870;2022-11-20T01:18:49;7.43;;;1.53;;
15915;SDS011;8057;47.830;-3.870;2022-11-20T01:23:00;7.47;;;1.67;;
15915;SDS011;8057;47.830;-3.870;2022-11-20T01:27:09;4.10;;;1.00;;
15915;SDS011;8057;47.830;-3.870;2022-11-20T01:31:20;8.47;;;1.93;;
15915;SDS011;8057;47.830;-3.870;2022-11-20T01:35:30;8.20;;;1.50;;
15915;SDS011;8057;47.830;-3.870;2022-11-20T01:39:39;5.47;;;1.20;;
15915;SDS011;8057;47.830;-3.870;2022-11-20T01:43:48;5.30;;;1.10;;
15915;SDS011;8057;47.830;-3.870;2022-11-20T01:47:58;9.70;;;1.63;;
15915;SDS011;8057;47.830;-3.870;2022-11-20T01:52:09;5.50;;;1.40;;
15915;SDS011;8057;47.830;-3.870;2022-11-20T01:56:24;5.37;;;1.30;;
15915;SDS011;8057;47.830;-3.870;2022-11-20T02:00:35;9.10;;;1.57;;
15915;SDS011;8057;47.830;-3.870;2022-11-20T02:04:45;8.47;;;1.43;;
15915;SDS011;8057;47.830;-3.870;2022-11-20T02:08:55;7.93;;;1.67;;
15915;SDS011;8057;47.830;-3.870;2022-11-20T02:13:04;5.40;;;1.50;;
15915;SDS011;8057;47.830;-3.870;2022-11-20T02:17:31;3.80;;;0.90;;
15915;SDS011;8057;47.830;-3.870;2022-11-20T02:21:43;6.53;;;1.33;;
15915;SDS011;8057;47.830;-3.870;2022-11-20T02:25:57;5.53;;;1.50;;
15915;SDS011;8057;47.830;-3.870;2022-11-20T02:30:09;5.27;;;1.53;;
15915;SDS011;8057;47.830;-3.870;2022-11-20T02:34:19;9.57;;;1.93;;
15915;SDS011;8057;47.830;-3.870;2022-11-20T02:38:28;9.13;;;1.63;;
15915;SDS011;8057;47.830;-3.870;2022-11-20T02:42:39;5.97;;;1.03;;
15915;SDS011;8057;47.830;-3.870;2022-11-20T02:46:48;3.93;;;0.97;;
15915;SDS011;8057;47.830;-3.870;2022-11-20T02:50:57;3.80;;;1.20;;
15915;SDS011;8057;47.830;-3.870;2022-11-20T02:55:06;5.40;;;1.00;;
15915;SDS011;8057;47.830;-3.870;2022-11-20T02:59:17;4.03;;;1.00;;
15915;SDS011;8057;47.830;-3.870;2022-11-20T03:03:26;8.97;;;1.47;;
15915;SDS011;8057;47.830;-3.870;2022-11-20T03:07:35;11.33;;;2.47;;
15915;SDS011;8057;47.830;-3.870;2022-11-20T03:11:44;10.43;;;2.37;;
15915;SDS011;8057;47.830;-3.870;2022-11-20T03:15:55;6.17;;;1.83;;
15915;SDS011;8057;47.830;-3.870;2022-11-20T03:20:04;7.20;;;1.50;;
15915;SDS011;8057;47.830;-3.870;2022-11-20T03:24:14;5.83;;;1.33;;
15915;SDS011;8057;47.830;-3.870;2022-11-20T03:28:24;9.90;;;2.17;;
15915;SDS011;8057;47.830;-3.870;2022-11-20T03:32:34;8.90;;;2.20;;
15915;SDS011;8057;47.830;-3.870;2022-11-20T03:36:43;10.53;;;2.27;;
15915;SDS011;8057;47.830;-3.870;2022-11-20T03:40:57;10.80;;;2.23;;
15915;SDS011;8057;47.830;-3.870;2022-11-20T03:45:07;7.60;;;2.17;;
15915;SDS011;8057;47.830;-3.870;2022-11-20T03:49:18;12.67;;;2.63;;
15915;SDS011;8057;47.830;-3.870;2022-11-20T03:53:27;11.30;;;2.33;;
15915;SDS011;8057;47.830;-3.870;2022-11-20T03:57:36;16.73;;;3.43;;
15915;SDS011;8057;47.830;-3.870;2022-11-20T04:01:45;13.93;;;3.20;;
15915;SDS011;8057;47.830;-3.870;2022-11-20T04:05:56;12.37;;;3.07;;
15915;SDS011;8057;47.830;-3.870;2022-11-20T04:10:10;14.03;;;3.30;;
15915;SDS011;8057;47.830;-3.870;2022-11-20T04:14:19;14.63;;;3.30;;
15915;SDS011;8057;47.830;-3.870;2022-11-20T04:18:28;11.50;;;2.63;;
15915;SDS011;8057;47.830;-3.870;2022-11-20T04:22:39;15.27;;;3.10;;
15915;SDS011;8057;47.830;-3.870;2022-11-20T04:26:48;15.63;;;3.00;;
15915;SDS011;8057;47.830;-3.870;2022-11-20T04:31:03;15.50;;;2.63;;
15915;SDS011;8057;47.830;-3.870;2022-11-20T04:35:13;12.77;;;2.97;;
15915;SDS011;8057;47.830;-3.870;2022-11-20T04:39:24;10.83;;;2.30;;
15915;SDS011;8057;47.830;-3.870;2022-11-20T04:43:34;13.30;;;3.20;;
15915;SDS011;8057;47.830;-3.870;2022-11-20T04:47:43;16.50;;;3.40;;
15915;SDS011;8057;47.830;-3.870;2022-11-20T04:51:52;21.50;;;4.33;;
15915;SDS011;8057;47.830;-3.870;2022-11-20T04:56:04;14.27;;;3.03;;
15915;SDS011;8057;47.830;-3.870;2022-11-20T05:00:15;14.47;;;3.50;;
15915;SDS011;8057;47.830;-3.870;2022-11-20T05:04:24;15.83;;;3.30;;
15915;SDS011;8057;47.830;-3.870;2022-11-20T05:08:33;16.97;;;3.40;;
15915;SDS011;8057;47.830;-3.870;2022-11-20T05:12:43;17.83;;;3.63;;
15915;SDS011;8057;47.830;-3.870;2022-11-20T05:16:52;13.73;;;3.03;;
15915;SDS011;8057;47.830;-3.870;2022-11-20T05:21:02;19.00;;;3.63;;
15915;SDS011;8057;47.830;-3.870;2022-11-20T05:25:11;16.63;;;3.33;;
15915;SDS011;8057;47.830;-3.870;2022-11-20T05:29:22;11.63;;;2.50;;
15915;SDS011;8057;47.830;-3.870;2022-11-20T05:33:31;13.97;;;3.20;;
15915;SDS011;8057;47.830;-3.870;2022-11-20T05:37:40;9.23;;;2.80;;
15915;SDS011;8057;47.830;-3.870;2022-11-20T05:41:49;13.07;;;2.77;;
15915;SDS011;8057;47.830;-3.870;2022-11-20T05:46:20;12.70;;;2.80;;
15915;SDS011;8057;47.830;-3.870;2022-11-20T05:50:34;10.87;;;2.50;;
15915;SDS011;8057;47.830;-3.870;2022-11-20T05:54:43;15.33;;;2.93;;
15915;SDS011;8057;47.830;-3.870;2022-11-20T05:58:52;10.73;;;2.83;;
15915;SDS011;8057;47.830;-3.870;2022-11-20T06:03:02;20.00;;;2.80;;
15915;SDS011;8057;47.830;-3.870;2022-11-20T06:07:11;11.93;;;2.80;;
15915;SDS011;8057;47.830;-3.870;2022-11-20T06:11:20;7.83;;;2.13;;
15915;SDS011;8057;47.830;-3.870;2022-11-20T06:15:29;14.90;;;3.30;;
15915;SDS011;8057;47.830;-3.870;2022-11-20T06:19:40;7.60;;;2.37;;
15915;SDS011;8057;47.830;-3.870;2022-11-20T06:23:49;11.80;;;2.33;;
15915;SDS011;8057;47.830;-3.870;2022-11-20T06:28:02;10.97;;;3.00;;
15915;SDS011;8057;47.830;-3.870;2022-11-20T06:32:11;10.57;;;2.57;;
15915;SDS011;8057;47.830;-3.870;2022-11-20T06:36:22;8.33;;;2.23;;
15915;SDS011;8057;47.830;-3.870;2022-11-20T06:40:31;13.37;;;2.87;;
15915;SDS011;8057;47.830;-3.870;2022-11-20T06:44:40;12.70;;;3.27;;
15915;SDS011;8057;47.830;-3.870;2022-11-20T06:48:49;11.00;;;2.83;;
15915;SDS011;8057;47.830;-3.870;2022-11-20T06:53:01;11.27;;;2.53;;
15915;SDS011;8057;47.830;-3.870;2022-11-20T06:57:11;11.50;;;2.57;;
15915;SDS011;8057;47.830;-3.870;2022-11-20T07:01:20;10.80;;;2.27;;
15915;SDS011;8057;47.830;-3.870;2022-11-20T07:05:30;7.37;;;1.90;;
15915;SDS011;8057;47.830;-3.870;2022-11-20T07:09:40;13.17;;;2.60;;
15915;SDS011;8057;47.830;-3.870;2022-11-20T07:13:49;12.30;;;2.13;;
15915;SDS011;8057;47.830;-3.870;2022-11-20T07:17:58;8.80;;;3.07;;
15915;SDS011;8057;47.830;-3.870;2022-11-20T07:22:07;12.33;;;3.17;;
15915;SDS011;8057;47.830;-3.870;2022-11-20T07:26:18;12.33;;;3.03;;
15915;SDS011;8057;47.830;-3.870;2022-11-20T07:30:27;9.67;;;2.50;;
15915;SDS011;8057;47.830;-3.870;2022-11-20T07:34:36;15.23;;;3.00;;
15915;SDS011;8057;47.830;-3.870;2022-11-20T07:38:45;10.77;;;3.53;;
15915;SDS011;8057;47.830;-3.870;2022-11-20T07:42:56;14.00;;;3.93;;
15915;SDS011;8057;47.830;-3.870;2022-11-20T07:47:05;12.50;;;2.97;;
15915;SDS011;8057;47.830;-3.870;2022-11-20T07:51:14;13.57;;;3.80;;
15915;SDS011;8057;47.830;-3.870;2022-11-20T07:55:23;14.03;;;3.47;;
15915;SDS011;8057;47.830;-3.870;2022-11-20T07:59:33;17.97;;;4.13;;
15915;SDS011;8057;47.830;-3.870;2022-11-20T08:03:42;11.97;;;2.97;;
15915;SDS011;8057;47.830;-3.870;2022-11-20T08:07:51;9.90;;;2.97;;
15915;SDS011;8057;47.830;-3.870;2022-11-20T08:12:00;18.00;;;3.67;;
15915;SDS011;8057;47.830;-3.870;2022-11-20T08:16:27;13.73;;;3.40;;
15915;SDS011;8057;47.830;-3.870;2022-11-20T08:20:37;25.57;;;4.53;;
15915;SDS011;8057;47.830;-3.870;2022-11-20T08:24:46;19.50;;;4.13;;
15915;SDS011;8057;47.830;-3.870;2022-11-20T08:28:55;19.20;;;3.93;;
15915;SDS011;8057;47.830;-3.870;2022-11-20T08:33:07;21.07;;;4.77;;
15915;SDS011;8057;47.830;-3.870;2022-11-20T08:37:17;22.90;;;4.77;;
15915;SDS011;8057;47.830;-3.870;2022-11-20T08:41:26;26.53;;;5.53;;
15915;SDS011;8057;47.830;-3.870;2022-11-20T08:45:35;23.67;;;5.20;;
15915;SDS011;8057;47.830;-3.870;2022-11-20T08:49:45;20.37;;;5.13;;
15915;SDS011;8057;47.830;-3.870;2022-11-20T08:53:54;19.20;;;4.40;;
15915;SDS011;8057;47.830;-3.870;2022-11-20T08:58:03;20.37;;;5.03;;
15915;SDS011;8057;47.830;-3.870;2022-11-20T09:02:12;22.60;;;5.40;;
15915;SDS011;8057;47.830;-3.870;2022-11-20T09:06:23;19.63;;;4.67;;
15915;SDS011;8057;47.830;-3.870;2022-11-20T09:10:32;20.93;;;5.07;;
15915;SDS011;8057;47.830;-3.870;2022-11-20T09:14:41;21.43;;;5.33;;
15915;SDS011;8057;47.830;-3.870;2022-11-20T09:18:50;19.53;;;4.60;;
15915;SDS011;8057;47.830;-3.870;2022-11-20T09:23:20;23.53;;;5.53;;
15915;SDS011;8057;47.830;-3.870;2022-11-20T09:27:29;23.53;;;5.20;;
15915;SDS011;8057;47.830;-3.870;2022-11-20T09:31:38;22.67;;;5.00;;
15915;SDS011;8057;47.830;-3.870;2022-11-20T09:35:47;22.60;;;5.53;;
15915;SDS011;8057;47.830;-3.870;2022-11-20T09:39:57;23.60;;;6.20;;
15915;SDS011;8057;47.830;-3.870;2022-11-20T09:44:07;18.70;;;4.57;;
15915;SDS011;8057;47.830;-3.870;2022-11-20T09:48:36;21.83;;;5.23;;
15915;SDS011;8057;47.830;-3.870;2022-11-20T09:53:04;26.10;;;4.97;;
15915;SDS011;8057;47.830;-3.870;2022-11-20T09:57:22;24.00;;;5.13;;
15915;SDS011;8057;47.830;-3.870;2022-11-20T10:01:37;23.03;;;5.67;;
15915;SDS011;8057;47.830;-3.870;2022-11-20T10:05:50;17.60;;;4.83;;
15915;SDS011;8057;47.830;-3.870;2022-11-20T10:10:02;22.20;;;6.33;;
15915;SDS011;8057;47.830;-3.870;2022-11-20T10:14:16;21.47;;;5.30;;
15915;SDS011;8057;47.830;-3.870;2022-11-20T10:18:39;20.73;;;4.37;;
15915;SDS011;8057;47.830;-3.870;2022-11-20T10:23:03;18.77;;;4.37;;
15915;SDS011;8057;47.830;-3.870;2022-11-20T10:27:38;21.20;;;4.80;;
15915;SDS011;8057;47.830;-3.870;2022-11-20T10:32:01;17.23;;;4.83;;
15915;SDS011;8057;47.830;-3.870;2022-11-20T10:36:14;12.20;;;3.93;;
15915;SDS011;8057;47.830;-3.870;2022-11-20T10:40:28;15.37;;;4.00;;
15915;SDS011;8057;47.830;-3.870;2022-11-20T10:44:42;17.63;;;3.87;;
15915;SDS011;8057;47.830;-3.870;2022-11-20T10:49:14;14.50;;;4.10;;
15915;SDS011;8057;47.830;-3.870;2022-11-20T10:53:33;13.97;;;3.77;;
15915;SDS011;8057;47.830;-3.870;2022-11-20T10:58:04;18.60;;;4.30;;
15915;SDS011;8057;47.830;-3.870;2022-11-20T11:02:22;13.40;;;4.07;;
15915;SDS011;8057;47.830;-3.870;2022-11-20T11:06:34;14.80;;;3.83;;
15915;SDS011;8057;47.830;-3.870;2022-11-20T11:10:46;17.57;;;3.77;;
15915;SDS011;8057;47.830;-3.870;2022-11-20T11:14:59;17.67;;;4.47;;
15915;SDS011;8057;47.830;-3.870;2022-11-20T11:19:11;20.17;;;4.60;;
15915;SDS011;8057;47.830;-3.870;2022-11-20T11:23:28;17.10;;;4.10;;
15915;SDS011;8057;47.830;-3.870;2022-11-20T11:27:45;18.17;;;4.20;;
15915;SDS011;8057;47.830;-3.870;2022-11-20T11:32:02;13.57;;;3.80;;
15915;SDS011;8057;47.830;-3.870;2022-11-20T11:36:16;11.93;;;3.93;;
15915;SDS011;8057;47.830;-3.870;2022-11-20T11:40:29;17.20;;;4.27;;
15915;SDS011;8057;47.830;-3.870;2022-11-20T11:44:44;20.53;;;4.53;;
15915;SDS011;8057;47.830;-3.870;2022-11-20T11:49:14;16.50;;;4.07;;
15915;SDS011;8057;47.830;-3.870;2022-11-20T11:53:25;18.60;;;6.27;;
15915;SDS011;8057;47.830;-3.870;2022-11-20T11:57:41;17.30;;;4.23;;
15915;SDS011;8057;47.830;-3.870;2022-11-20T12:01:57;16.70;;;3.37;;
15915;SDS011;8057;47.830;-3.870;2022-11-20T12:06:11;14.43;;;3.70;;
15915;SDS011;8057;47.830;-3.870;2022-11-20T12:10:29;13.47;;;3.57;;
15915;SDS011;8057;47.830;-3.870;2022-11-20T12:14:50;14.57;;;3.23;;
15915;SDS011;8057;47.830;-3.870;2022-11-20T12:19:04;11.33;;;3.57;;
15915;SDS011;8057;47.830;-3.870;2022-11-20T12:23:20;16.40;;;4.73;;
15915;SDS011;8057;47.830;-3.870;2022-11-20T12:27:47;16.73;;;4.77;;
15915;SDS011;8057;47.830;-3.870;2022-11-20T12:37:04;15.60;;;4.80;;
15915;SDS011;8057;47.830;-3.870;2022-11-20T12:41:24;8.60;;;3.87;;
15915;SDS011;8057;47.830;-3.870;2022-11-20T12:46:06;20.90;;;4.33;;
15915;SDS011;8057;47.830;-3.870;2022-11-20T12:50:25;12.57;;;4.67;;
15915;SDS011;8057;47.830;-3.870;2022-11-20T12:59:46;14.03;;;5.40;;
15915;SDS011;8057;47.830;-3.870;2022-11-20T13:04:18;18.30;;;7.93;;
15915;SDS011;8057;47.830;-3.870;2022-11-20T13:08:50;16.83;;;7.27;;
15915;SDS011;8057;47.830;-3.870;2022-11-20T13:13:05;17.67;;;5.20;;
15915;SDS011;8057;47.830;-3.870;2022-11-20T13:17:22;15.03;;;4.77;;
15915;SDS011;8057;47.830;-3.870;2022-11-20T13:21:39;18.40;;;6.23;;
15915;SDS011;8057;47.830;-3.870;2022-11-20T13:25:49;16.87;;;5.17;;
15915;SDS011;8057;47.830;-3.870;2022-11-20T13:30:10;16.40;;;5.17;;
15915;SDS011;8057;47.830;-3.870;2022-11-20T13:34:24;15.40;;;4.90;;
15915;SDS011;8057;47.830;-3.870;2022-11-20T13:38:46;15.63;;;4.57;;
15915;SDS011;8057;47.830;-3.870;2022-11-20T13:43:02;12.20;;;3.47;;
15915;SDS011;8057;47.830;-3.870;2022-11-20T13:47:21;12.93;;;4.40;;
15915;SDS011;8057;47.830;-3.870;2022-11-20T13:51:34;14.27;;;4.10;;
15915;SDS011;8057;47.830;-3.870;2022-11-20T13:55:54;13.20;;;4.10;;
15915;SDS011;8057;47.830;-3.870;2022-11-20T14:00:09;11.80;;;4.47;;
15915;SDS011;8057;47.830;-3.870;2022-11-20T14:04:25;15.90;;;5.07;;
15915;SDS011;8057;47.830;-3.870;2022-11-20T14:08:38;13.90;;;3.80;;
15915;SDS011;8057;47.830;-3.870;2022-11-20T14:12:50;18.13;;;5.77;;
15915;SDS011;8057;47.830;-3.870;2022-11-20T14:17:05;14.60;;;4.73;;
15915;SDS011;8057;47.830;-3.870;2022-11-20T14:21:22;16.30;;;5.57;;
15915;SDS011;8057;47.830;-3.870;2022-11-20T14:25:33;17.47;;;4.60;;
15915;SDS011;8057;47.830;-3.870;2022-11-20T14:29:44;13.40;;;3.67;;
15915;SDS011;8057;47.830;-3.870;2022-11-20T14:33:55;10.40;;;3.13;;
15915;SDS011;8057;47.830;-3.870;2022-11-20T14:38:08;20.43;;;5.43;;
15915;SDS011;8057;47.830;-3.870;2022-11-20T14:42:24;14.57;;;3.83;;
15915;SDS011;8057;47.830;-3.870;2022-11-20T14:46:34;14.70;;;4.17;;
15915;SDS011;8057;47.830;-3.870;2022-11-20T14:50:45;16.43;;;4.80;;
15915;SDS011;8057;47.830;-3.870;2022-11-20T14:54:56;15.33;;;4.33;;
15915;SDS011;8057;47.830;-3.870;2022-11-20T14:59:07;19.77;;;4.53;;
15915;SDS011;8057;47.830;-3.870;2022-11-20T15:03:17;13.63;;;4.17;;
15915;SDS011;8057;47.830;-3.870;2022-11-20T15:07:27;15.47;;;3.53;;
15915;SDS011;8057;47.830;-3.870;2022-11-20T15:11:38;14.67;;;4.10;;
15915;SDS011;8057;47.830;-3.870;2022-11-20T15:15:48;15.77;;;3.87;;
15915;SDS011;8057;47.830;-3.870;2022-11-20T15:19:59;15.57;;;3.77;;
15915;SDS011;8057;47.830;-3.870;2022-11-20T15:24:11;16.33;;;4.53;;
15915;SDS011;8057;47.830;-3.870;2022-11-20T15:28:23;18.63;;;4.77;;
15915;SDS011;8057;47.830;-3.870;2022-11-20T15:32:36;17.60;;;4.77;;
15915;SDS011;8057;47.830;-3.870;2022-11-20T15:36:45;18.97;;;5.83;;
15915;SDS011;8057;47.830;-3.870;2022-11-20T15:40:54;26.27;;;6.97;;
15915;SDS011;8057;47.830;-3.870;2022-11-20T15:45:05;23.10;;;5.40;;
15915;SDS011;8057;47.830;-3.870;2022-11-20T15:54:00;18.67;;;5.03;;
15915;SDS011;8057;47.830;-3.870;2022-11-20T16:02:55;13.77;;;4.33;;
15915;SDS011;8057;47.830;-3.870;2022-11-20T16:16:28;14.80;;;4.63;;
15915;SDS011;8057;47.830;-3.870;2022-11-20T16:20:41;15.90;;;5.20;;
15915;SDS011;8057;47.830;-3.870;2022-11-20T16:24:51;14.20;;;4.80;;
15915;SDS011;8057;47.830;-3.870;2022-11-20T16:33:38;18.63;;;5.87;;
15915;SDS011;8057;47.830;-3.870;2022-11-20T16:37:51;21.77;;;6.37;;
15915;SDS011;8057;47.830;-3.870;2022-11-20T16:42:02;20.97;;;5.93;;
15915;SDS011;8057;47.830;-3.870;2022-11-20T16:46:14;19.57;;;5.70;;
15915;SDS011;8057;47.830;-3.870;2022-11-20T16:50:24;19.33;;;5.73;;
15915;SDS011;8057;47.830;-3.870;2022-11-20T16:54:35;16.47;;;5.70;;
15915;SDS011;8057;47.830;-3.870;2022-11-20T16:58:45;12.10;;;4.70;;
15915;SDS011;8057;47.830;-3.870;2022-11-20T17:02:57;19.97;;;5.73;;
15915;SDS011;8057;47.830;-3.870;2022-11-20T17:07:06;21.20;;;6.10;;
15915;SDS011;8057;47.830;-3.870;2022-11-20T17:11:18;15.00;;;4.73;;
15915;SDS011;8057;47.830;-3.870;2022-11-20T17:15:27;17.63;;;5.27;;
15915;SDS011;8057;47.830;-3.870;2022-11-20T17:19:36;18.73;;;6.03;;
15915;SDS011;8057;47.830;-3.870;2022-11-20T17:23:45;18.80;;;6.77;;
15915;SDS011;8057;47.830;-3.870;2022-11-20T17:27:56;18.27;;;5.53;;
15915;SDS011;8057;47.830;-3.870;2022-11-20T17:32:05;18.37;;;5.37;;
15915;SDS011;8057;47.830;-3.870;2022-11-20T17:36:15;16.37;;;5.53;;
15915;SDS011;8057;47.830;-3.870;2022-11-20T17:40:25;19.50;;;6.87;;
15915;SDS011;8057;47.830;-3.870;2022-11-20T17:44:36;16.10;;;4.87;;
15915;SDS011;8057;47.830;-3.870;2022-11-20T17:48:47;17.30;;;6.30;;
15915;SDS011;8057;47.830;-3.870;2022-11-20T17:52:57;18.83;;;5.20;;
15915;SDS011;8057;47.830;-3.870;2022-11-20T17:57:07;18.67;;;6.90;;
15915;SDS011;8057;47.830;-3.870;2022-11-20T18:01:35;18.00;;;5.83;;
15915;SDS011;8057;47.830;-3.870;2022-11-20T18:05:45;19.40;;;5.90;;
15915;SDS011;8057;47.830;-3.870;2022-11-20T18:09:54;15.57;;;5.77;;
15915;SDS011;8057;47.830;-3.870;2022-11-20T18:14:04;16.53;;;5.37;;
15915;SDS011;8057;47.830;-3.870;2022-11-20T18:18:33;18.80;;;5.80;;
15915;SDS011;8057;47.830;-3.870;2022-11-20T18:22:43;18.07;;;5.60;;
15915;SDS011;8057;47.830;-3.870;2022-11-20T18:26:52;15.73;;;4.17;;
15915;SDS011;8057;47.830;-3.870;2022-11-20T18:31:03;13.97;;;4.00;;
15915;SDS011;8057;47.830;-3.870;2022-11-20T18:35:15;20.43;;;4.93;;
15915;SDS011;8057;47.830;-3.870;2022-11-20T18:39:24;16.03;;;4.60;;
15915;SDS011;8057;47.830;-3.870;2022-11-20T18:43:33;16.03;;;4.67;;
15915;SDS011;8057;47.830;-3.870;2022-11-20T18:48:01;21.07;;;4.17;;
15915;SDS011;8057;47.830;-3.870;2022-11-20T18:52:12;16.67;;;4.30;;
15915;SDS011;8057;47.830;-3.870;2022-11-20T18:56:21;13.10;;;3.63;;
15915;SDS011;8057;47.830;-3.870;2022-11-20T19:00:31;15.93;;;4.23;;
15915;SDS011;8057;47.830;-3.870;2022-11-20T19:04:40;17.73;;;4.50;;
15915;SDS011;8057;47.830;-3.870;2022-11-20T19:08:51;17.60;;;4.47;;
15915;SDS011;8057;47.830;-3.870;2022-11-20T19:13:01;14.40;;;4.07;;
15915;SDS011;8057;47.830;-3.870;2022-11-20T19:17:10;13.83;;;3.50;;
15915;SDS011;8057;47.830;-3.870;2022-11-20T19:21:20;15.23;;;4.13;;
15915;SDS011;8057;47.830;-3.870;2022-11-20T19:25:32;12.83;;;3.93;;
15915;SDS011;8057;47.830;-3.870;2022-11-20T19:29:43;15.30;;;4.60;;
15915;SDS011;8057;47.830;-3.870;2022-11-20T19:33:54;13.90;;;3.97;;
15915;SDS011;8057;47.830;-3.870;2022-11-20T19:38:04;13.93;;;3.67;;
15915;SDS011;8057;47.830;-3.870;2022-11-20T19:42:15;18.80;;;4.67;;
15915;SDS011;8057;47.830;-3.870;2022-11-20T19:46:24;15.37;;;4.57;;
15915;SDS011;8057;47.830;-3.870;2022-11-20T19:50:33;15.00;;;3.47;;
15915;SDS011;8057;47.830;-3.870;2022-11-20T19:54:42;14.27;;;3.73;;
15915;SDS011;8057;47.830;-3.870;2022-11-20T19:58:54;21.37;;;4.47;;
15915;SDS011;8057;47.830;-3.870;2022-11-20T20:03:04;15.50;;;4.03;;
15915;SDS011;8057;47.830;-3.870;2022-11-20T20:07:13;11.63;;;3.63;;
15915;SDS011;8057;47.830;-3.870;2022-11-20T20:11:23;16.00;;;5.03;;
15915;SDS011;8057;47.830;-3.870;2022-11-20T20:15:36;23.83;;;5.53;;
15915;SDS011;8057;47.830;-3.870;2022-11-20T20:19:47;17.00;;;4.43;;
15915;SDS011;8057;47.830;-3.870;2022-11-20T20:23:57;12.83;;;3.57;;
15915;SDS011;8057;47.830;-3.870;2022-11-20T20:28:07;20.93;;;4.17;;
15915;SDS011;8057;47.830;-3.870;2022-11-20T20:32:17;16.23;;;3.80;;
15915;SDS011;8057;47.830;-3.870;2022-11-20T20:36:27;15.00;;;4.40;;
15915;SDS011;8057;47.830;-3.870;2022-11-20T20:40:36;14.57;;;4.10;;
15915;SDS011;8057;47.830;-3.870;2022-11-20T20:44:45;14.60;;;3.33;;
15915;SDS011;8057;47.830;-3.870;2022-11-20T20:49:13;17.47;;;4.17;;
15915;SDS011;8057;47.830;-3.870;2022-11-20T20:53:22;15.93;;;4.13;;
15915;SDS011;8057;47.830;-3.870;2022-11-20T20:57:33;13.77;;;3.90;;
15915;SDS011;8057;47.830;-3.870;2022-11-20T21:01:42;16.00;;;3.57;;
15915;SDS011;8057;47.830;-3.870;2022-11-20T21:05:55;15.70;;;4.10;;
15915;SDS011;8057;47.830;-3.870;2022-11-20T21:10:05;16.97;;;3.70;;
15915;SDS011;8057;47.830;-3.870;2022-11-20T21:14:14;12.80;;;4.27;;
15915;SDS011;8057;47.830;-3.870;2022-11-20T21:18:23;20.97;;;3.80;;
15915;SDS011;8057;47.830;-3.870;2022-11-20T21:22:37;16.83;;;3.97;;
15915;SDS011;8057;47.830;-3.870;2022-11-20T23:57:23;17.77;;;4.27;;
